sensor_id;sensor_type;location;lat;lon;timestamp;P1;durP1;ratioP1;P2;durP2;ratioP2
12412;SDS011;13877;18.896;-99.222;2023-05-29T00:01:05;9.48;;;4.80;;
12412;SDS011;13877;18.896;-99.222;2023-05-29T00:03:33;10.27;;;5.40;;
12412;SDS011;13877;18.896;-99.222;2023-05-29T00:06:04;9.05;;;5.10;;
12412;SDS011;13877;18.896;-99.222;2023-05-29T00:08:31;8.32;;;5.43;;
12412;SDS011;13877;18.896;-99.222;2023-05-29T00:10:58;11.52;;;6.10;;
12412;SDS011;13877;18.896;-99.222;2023-05-29T00:13:26;15.52;;;6.45;;
12412;SDS011;13877;18.896;-99.222;2023-05-29T00:15:53;8.55;;;5.82;;
12412;SDS011;13877;18.896;-99.222;2023-05-29T00:18:19;10.98;;;5.45;;
12412;SDS011;13877;18.896;-99.222;2023-05-29T00:20:46;13.07;;;5.60;;
12412;SDS011;13877;18.896;-99.222;2023-05-29T00:23:13;13.98;;;4.78;;
12412;SDS011;13877;18.896;-99.222;2023-05-29T00:25:40;9.90;;;5.40;;
12412;SDS011;13877;18.896;-99.222;2023-05-29T00:28:07;10.60;;;6.05;;
12412;SDS011;13877;18.896;-99.222;2023-05-29T00:30:35;11.02;;;6.45;;
12412;SDS011;13877;18.896;-99.222;2023-05-29T00:33:02;12.35;;;6.32;;
12412;SDS011;13877;18.896;-99.222;2023-05-29T00:35:29;10.32;;;6.30;;
12412;SDS011;13877;18.896;-99.222;2023-05-29T00:37:56;11.45;;;6.28;;
12412;SDS011;13877;18.896;-99.222;2023-05-29T00:40:24;20.05;;;6.78;;
12412;SDS011;13877;18.896;-99.222;2023-05-29T00:42:51;12.07;;;6.78;;
12412;SDS011;13877;18.896;-99.222;2023-05-29T00:45:18;11.15;;;6.05;;
12412;SDS011;13877;18.896;-99.222;2023-05-29T00:47:45;8.20;;;5.03;;
12412;SDS011;13877;18.896;-99.222;2023-05-29T00:50:13;8.40;;;5.47;;
12412;SDS011;13877;18.896;-99.222;2023-05-29T00:52:41;8.10;;;5.07;;
12412;SDS011;13877;18.896;-99.222;2023-05-29T00:55:08;12.32;;;5.60;;
12412;SDS011;13877;18.896;-99.222;2023-05-29T00:57:36;9.10;;;4.75;;
12412;SDS011;13877;18.896;-99.222;2023-05-29T01:00:06;11.30;;;5.33;;
12412;SDS011;13877;18.896;-99.222;2023-05-29T01:02:35;12.85;;;5.95;;
12412;SDS011;13877;18.896;-99.222;2023-05-29T01:05:04;9.07;;;5.72;;
12412;SDS011;13877;18.896;-99.222;2023-05-29T01:07:31;10.02;;;6.85;;
12412;SDS011;13877;18.896;-99.222;2023-05-29T01:09:59;15.07;;;6.93;;
12412;SDS011;13877;18.896;-99.222;2023-05-29T01:15:43;16.73;;;6.75;;
12412;SDS011;13877;18.896;-99.222;2023-05-29T01:29:19;11.45;;;5.97;;
12412;SDS011;13877;18.896;-99.222;2023-05-29T01:31:53;13.40;;;6.22;;
12412;SDS011;13877;18.896;-99.222;2023-05-29T01:34:21;9.98;;;6.63;;
12412;SDS011;13877;18.896;-99.222;2023-05-29T01:36:48;12.68;;;6.38;;
12412;SDS011;13877;18.896;-99.222;2023-05-29T01:39:15;9.02;;;6.05;;
12412;SDS011;13877;18.896;-99.222;2023-05-29T01:41:44;10.38;;;5.78;;
12412;SDS011;13877;18.896;-99.222;2023-05-29T01:44:12;9.07;;;5.88;;
12412;SDS011;13877;18.896;-99.222;2023-05-29T01:46:41;9.98;;;6.40;;
12412;SDS011;13877;18.896;-99.222;2023-05-29T01:49:09;10.43;;;6.28;;
12412;SDS011;13877;18.896;-99.222;2023-05-29T01:51:40;10.45;;;6.40;;
12412;SDS011;13877;18.896;-99.222;2023-05-29T01:54:07;11.20;;;6.97;;
12412;SDS011;13877;18.896;-99.222;2023-05-29T01:56:35;12.75;;;6.32;;
12412;SDS011;13877;18.896;-99.222;2023-05-29T01:59:03;13.38;;;6.80;;
12412;SDS011;13877;18.896;-99.222;2023-05-29T02:01:31;23.73;;;7.18;;
12412;SDS011;13877;18.896;-99.222;2023-05-29T02:03:59;13.77;;;6.72;;
12412;SDS011;13877;18.896;-99.222;2023-05-29T02:06:25;12.95;;;7.13;;
12412;SDS011;13877;18.896;-99.222;2023-05-29T02:08:53;12.73;;;5.97;;
12412;SDS011;13877;18.896;-99.222;2023-05-29T02:11:20;17.17;;;7.22;;
12412;SDS011;13877;18.896;-99.222;2023-05-29T02:13:47;10.07;;;6.53;;
12412;SDS011;13877;18.896;-99.222;2023-05-29T02:16:14;29.10;;;7.65;;
12412;SDS011;13877;18.896;-99.222;2023-05-29T02:18:43;13.10;;;6.68;;
12412;SDS011;13877;18.896;-99.222;2023-05-29T02:21:09;12.43;;;6.80;;
12412;SDS011;13877;18.896;-99.222;2023-05-29T02:23:37;11.88;;;7.43;;
12412;SDS011;13877;18.896;-99.222;2023-05-29T02:26:04;17.40;;;7.65;;
12412;SDS011;13877;18.896;-99.222;2023-05-29T02:28:32;16.83;;;8.32;;
12412;SDS011;13877;18.896;-99.222;2023-05-29T02:30:58;14.75;;;7.72;;
12412;SDS011;13877;18.896;-99.222;2023-05-29T02:33:25;13.32;;;7.88;;
12412;SDS011;13877;18.896;-99.222;2023-05-29T02:35:56;18.08;;;8.13;;
12412;SDS011;13877;18.896;-99.222;2023-05-29T02:38:23;14.93;;;8.23;;
12412;SDS011;13877;18.896;-99.222;2023-05-29T02:40:50;17.30;;;8.10;;
12412;SDS011;13877;18.896;-99.222;2023-05-29T02:43:17;19.95;;;8.10;;
12412;SDS011;13877;18.896;-99.222;2023-05-29T02:45:43;12.60;;;7.82;;
12412;SDS011;13877;18.896;-99.222;2023-05-29T02:48:10;16.00;;;8.18;;
12412;SDS011;13877;18.896;-99.222;2023-05-29T02:50:37;36.78;;;8.43;;
12412;SDS011;13877;18.896;-99.222;2023-05-29T02:53:04;20.35;;;9.70;;
12412;SDS011;13877;18.896;-99.222;2023-05-29T02:55:31;14.23;;;8.20;;
12412;SDS011;13877;18.896;-99.222;2023-05-29T02:58:01;15.18;;;8.68;;
12412;SDS011;13877;18.896;-99.222;2023-05-29T03:00:29;13.27;;;8.40;;
12412;SDS011;13877;18.896;-99.222;2023-05-29T03:02:57;14.45;;;7.90;;
12412;SDS011;13877;18.896;-99.222;2023-05-29T03:05:24;15.43;;;8.00;;
12412;SDS011;13877;18.896;-99.222;2023-05-29T03:07:52;19.35;;;8.68;;
12412;SDS011;13877;18.896;-99.222;2023-05-29T03:10:19;16.17;;;8.80;;
12412;SDS011;13877;18.896;-99.222;2023-05-29T03:12:46;16.35;;;7.88;;
12412;SDS011;13877;18.896;-99.222;2023-05-29T03:15:13;16.48;;;8.18;;
12412;SDS011;13877;18.896;-99.222;2023-05-29T03:17:41;17.45;;;8.27;;
12412;SDS011;13877;18.896;-99.222;2023-05-29T03:20:11;17.08;;;7.18;;
12412;SDS011;13877;18.896;-99.222;2023-05-29T03:22:39;14.40;;;8.18;;
12412;SDS011;13877;18.896;-99.222;2023-05-29T03:25:06;12.25;;;8.40;;
12412;SDS011;13877;18.896;-99.222;2023-05-29T03:27:33;15.13;;;8.45;;
12412;SDS011;13877;18.896;-99.222;2023-05-29T03:30:12;12.68;;;7.82;;
12412;SDS011;13877;18.896;-99.222;2023-05-29T03:32:41;15.18;;;8.77;;
12412;SDS011;13877;18.896;-99.222;2023-05-29T03:35:08;17.55;;;8.32;;
12412;SDS011;13877;18.896;-99.222;2023-05-29T03:37:38;17.30;;;8.40;;
12412;SDS011;13877;18.896;-99.222;2023-05-29T03:40:05;16.00;;;8.73;;
12412;SDS011;13877;18.896;-99.222;2023-05-29T03:42:34;18.48;;;8.75;;
12412;SDS011;13877;18.896;-99.222;2023-05-29T03:45:01;14.98;;;8.20;;
12412;SDS011;13877;18.896;-99.222;2023-05-29T03:47:30;16.80;;;8.20;;
12412;SDS011;13877;18.896;-99.222;2023-05-29T03:49:57;18.90;;;8.60;;
12412;SDS011;13877;18.896;-99.222;2023-05-29T03:52:24;16.25;;;8.48;;
12412;SDS011;13877;18.896;-99.222;2023-05-29T03:54:54;20.77;;;8.95;;
12412;SDS011;13877;18.896;-99.222;2023-05-29T03:57:21;15.70;;;9.07;;
12412;SDS011;13877;18.896;-99.222;2023-05-29T03:59:49;20.98;;;10.40;;
12412;SDS011;13877;18.896;-99.222;2023-05-29T04:02:16;22.23;;;9.05;;
12412;SDS011;13877;18.896;-99.222;2023-05-29T04:04:43;18.05;;;8.82;;
12412;SDS011;13877;18.896;-99.222;2023-05-29T04:07:10;24.67;;;9.25;;
12412;SDS011;13877;18.896;-99.222;2023-05-29T04:09:38;17.05;;;9.15;;
12412;SDS011;13877;18.896;-99.222;2023-05-29T04:12:07;19.80;;;9.60;;
12412;SDS011;13877;18.896;-99.222;2023-05-29T04:14:34;15.73;;;7.78;;
12412;SDS011;13877;18.896;-99.222;2023-05-29T04:17:01;16.52;;;9.95;;
12412;SDS011;13877;18.896;-99.222;2023-05-29T04:19:28;16.17;;;9.32;;
12412;SDS011;13877;18.896;-99.222;2023-05-29T04:21:55;20.52;;;9.68;;
12412;SDS011;13877;18.896;-99.222;2023-05-29T04:24:22;20.15;;;8.90;;
12412;SDS011;13877;18.896;-99.222;2023-05-29T04:26:51;18.75;;;9.43;;
12412;SDS011;13877;18.896;-99.222;2023-05-29T04:29:18;20.45;;;8.85;;
12412;SDS011;13877;18.896;-99.222;2023-05-29T04:31:45;15.95;;;9.05;;
12412;SDS011;13877;18.896;-99.222;2023-05-29T04:34:13;21.77;;;9.98;;
12412;SDS011;13877;18.896;-99.222;2023-05-29T04:36:42;20.23;;;9.25;;
12412;SDS011;13877;18.896;-99.222;2023-05-29T04:39:12;19.67;;;9.13;;
12412;SDS011;13877;18.896;-99.222;2023-05-29T04:41:40;22.52;;;9.50;;
12412;SDS011;13877;18.896;-99.222;2023-05-29T04:44:11;22.50;;;11.13;;
12412;SDS011;13877;18.896;-99.222;2023-05-29T04:46:44;15.68;;;9.38;;
12412;SDS011;13877;18.896;-99.222;2023-05-29T04:49:14;19.08;;;9.38;;
12412;SDS011;13877;18.896;-99.222;2023-05-29T04:51:40;18.33;;;9.55;;
12412;SDS011;13877;18.896;-99.222;2023-05-29T04:54:08;14.82;;;8.93;;
12412;SDS011;13877;18.896;-99.222;2023-05-29T04:56:36;21.77;;;9.07;;
12412;SDS011;13877;18.896;-99.222;2023-05-29T04:59:07;16.30;;;8.77;;
12412;SDS011;13877;18.896;-99.222;2023-05-29T05:01:34;14.32;;;9.00;;
12412;SDS011;13877;18.896;-99.222;2023-05-29T05:04:02;21.92;;;9.80;;
12412;SDS011;13877;18.896;-99.222;2023-05-29T05:06:29;17.85;;;10.13;;
12412;SDS011;13877;18.896;-99.222;2023-05-29T05:08:57;17.95;;;9.43;;
12412;SDS011;13877;18.896;-99.222;2023-05-29T05:11:24;18.50;;;8.93;;
12412;SDS011;13877;18.896;-99.222;2023-05-29T05:13:51;16.20;;;8.63;;
12412;SDS011;13877;18.896;-99.222;2023-05-29T05:16:18;16.60;;;8.45;;
12412;SDS011;13877;18.896;-99.222;2023-05-29T05:18:45;15.88;;;8.75;;
12412;SDS011;13877;18.896;-99.222;2023-05-29T05:21:12;18.58;;;8.95;;
12412;SDS011;13877;18.896;-99.222;2023-05-29T05:23:39;13.77;;;8.10;;
12412;SDS011;13877;18.896;-99.222;2023-05-29T05:26:08;12.85;;;8.02;;
12412;SDS011;13877;18.896;-99.222;2023-05-29T05:28:36;18.52;;;8.65;;
12412;SDS011;13877;18.896;-99.222;2023-05-29T05:31:04;16.10;;;8.50;;
12412;SDS011;13877;18.896;-99.222;2023-05-29T05:33:32;16.95;;;8.65;;
12412;SDS011;13877;18.896;-99.222;2023-05-29T05:35:59;15.50;;;9.38;;
12412;SDS011;13877;18.896;-99.222;2023-05-29T05:38:26;15.43;;;7.93;;
12412;SDS011;13877;18.896;-99.222;2023-05-29T05:40:53;16.00;;;8.88;;
12412;SDS011;13877;18.896;-99.222;2023-05-29T05:43:26;17.65;;;9.25;;
12412;SDS011;13877;18.896;-99.222;2023-05-29T05:46:04;19.92;;;9.23;;
12412;SDS011;13877;18.896;-99.222;2023-05-29T05:48:33;16.55;;;9.35;;
12412;SDS011;13877;18.896;-99.222;2023-05-29T05:51:00;15.45;;;9.02;;
12412;SDS011;13877;18.896;-99.222;2023-05-29T05:53:27;16.95;;;9.50;;
12412;SDS011;13877;18.896;-99.222;2023-05-29T05:55:54;20.17;;;10.77;;
12412;SDS011;13877;18.896;-99.222;2023-05-29T05:58:22;19.42;;;10.63;;
12412;SDS011;13877;18.896;-99.222;2023-05-29T06:00:49;18.92;;;9.93;;
12412;SDS011;13877;18.896;-99.222;2023-05-29T06:03:18;23.27;;;11.63;;
12412;SDS011;13877;18.896;-99.222;2023-05-29T06:06:06;22.83;;;10.77;;
12412;SDS011;13877;18.896;-99.222;2023-05-29T06:08:37;20.80;;;11.32;;
12412;SDS011;13877;18.896;-99.222;2023-05-29T06:11:06;27.27;;;10.38;;
12412;SDS011;13877;18.896;-99.222;2023-05-29T06:13:36;22.83;;;9.98;;
12412;SDS011;13877;18.896;-99.222;2023-05-29T06:16:07;21.77;;;10.18;;
12412;SDS011;13877;18.896;-99.222;2023-05-29T06:18:35;22.75;;;10.05;;
12412;SDS011;13877;18.896;-99.222;2023-05-29T06:21:02;18.00;;;9.48;;
12412;SDS011;13877;18.896;-99.222;2023-05-29T06:23:29;18.73;;;9.93;;
12412;SDS011;13877;18.896;-99.222;2023-05-29T06:26:00;19.65;;;9.40;;
12412;SDS011;13877;18.896;-99.222;2023-05-29T06:28:27;21.15;;;8.90;;
12412;SDS011;13877;18.896;-99.222;2023-05-29T06:30:55;17.27;;;9.05;;
12412;SDS011;13877;18.896;-99.222;2023-05-29T06:33:23;17.73;;;8.95;;
12412;SDS011;13877;18.896;-99.222;2023-05-29T06:35:49;20.33;;;8.40;;
12412;SDS011;13877;18.896;-99.222;2023-05-29T06:38:17;15.38;;;9.15;;
12412;SDS011;13877;18.896;-99.222;2023-05-29T06:40:44;20.05;;;8.55;;
12412;SDS011;13877;18.896;-99.222;2023-05-29T06:43:11;15.80;;;7.78;;
12412;SDS011;13877;18.896;-99.222;2023-05-29T06:45:39;18.90;;;7.93;;
12412;SDS011;13877;18.896;-99.222;2023-05-29T06:48:06;17.10;;;7.60;;
12412;SDS011;13877;18.896;-99.222;2023-05-29T06:50:33;17.55;;;9.48;;
12412;SDS011;13877;18.896;-99.222;2023-05-29T06:53:18;13.07;;;8.32;;
12412;SDS011;13877;18.896;-99.222;2023-05-29T06:55:49;16.67;;;8.65;;
12412;SDS011;13877;18.896;-99.222;2023-05-29T06:58:16;15.55;;;8.65;;
12412;SDS011;13877;18.896;-99.222;2023-05-29T07:00:43;19.83;;;8.18;;
12412;SDS011;13877;18.896;-99.222;2023-05-29T07:03:30;16.42;;;8.23;;
12412;SDS011;13877;18.896;-99.222;2023-05-29T07:05:57;14.05;;;8.13;;
12412;SDS011;13877;18.896;-99.222;2023-05-29T07:08:24;16.95;;;8.02;;
12412;SDS011;13877;18.896;-99.222;2023-05-29T07:10:53;13.73;;;7.80;;
12412;SDS011;13877;18.896;-99.222;2023-05-29T07:13:20;12.32;;;7.43;;
12412;SDS011;13877;18.896;-99.222;2023-05-29T07:15:48;15.93;;;8.15;;
12412;SDS011;13877;18.896;-99.222;2023-05-29T07:18:15;14.80;;;7.50;;
12412;SDS011;13877;18.896;-99.222;2023-05-29T07:20:42;16.25;;;7.97;;
12412;SDS011;13877;18.896;-99.222;2023-05-29T07:23:13;16.40;;;8.48;;
12412;SDS011;13877;18.896;-99.222;2023-05-29T07:25:40;17.92;;;8.77;;
12412;SDS011;13877;18.896;-99.222;2023-05-29T07:28:09;16.77;;;8.57;;
12412;SDS011;13877;18.896;-99.222;2023-05-29T07:30:36;17.02;;;8.15;;
12412;SDS011;13877;18.896;-99.222;2023-05-29T07:33:04;18.92;;;8.30;;
12412;SDS011;13877;18.896;-99.222;2023-05-29T07:35:32;20.05;;;8.38;;
12412;SDS011;13877;18.896;-99.222;2023-05-29T07:38:00;22.33;;;8.40;;
12412;SDS011;13877;18.896;-99.222;2023-05-29T07:40:27;20.80;;;8.10;;
12412;SDS011;13877;18.896;-99.222;2023-05-29T07:43:23;14.13;;;8.02;;
12412;SDS011;13877;18.896;-99.222;2023-05-29T07:45:57;15.32;;;8.15;;
12412;SDS011;13877;18.896;-99.222;2023-05-29T07:48:25;19.02;;;9.85;;
12412;SDS011;13877;18.896;-99.222;2023-05-29T07:50:52;16.10;;;8.43;;
12412;SDS011;13877;18.896;-99.222;2023-05-29T07:53:19;15.05;;;8.10;;
12412;SDS011;13877;18.896;-99.222;2023-05-29T07:55:47;15.27;;;8.07;;
12412;SDS011;13877;18.896;-99.222;2023-05-29T07:58:13;13.70;;;8.30;;
12412;SDS011;13877;18.896;-99.222;2023-05-29T08:00:43;13.68;;;8.32;;
12412;SDS011;13877;18.896;-99.222;2023-05-29T08:03:11;13.43;;;8.10;;
12412;SDS011;13877;18.896;-99.222;2023-05-29T08:05:58;22.48;;;8.15;;
12412;SDS011;13877;18.896;-99.222;2023-05-29T08:08:27;11.57;;;7.25;;
12412;SDS011;13877;18.896;-99.222;2023-05-29T08:10:54;18.25;;;7.60;;
12412;SDS011;13877;18.896;-99.222;2023-05-29T08:13:21;14.95;;;7.43;;
12412;SDS011;13877;18.896;-99.222;2023-05-29T08:15:49;11.30;;;7.43;;
12412;SDS011;13877;18.896;-99.222;2023-05-29T08:18:16;15.38;;;7.60;;
12412;SDS011;13877;18.896;-99.222;2023-05-29T08:20:43;14.85;;;7.15;;
12412;SDS011;13877;18.896;-99.222;2023-05-29T08:23:10;18.67;;;7.70;;
12412;SDS011;13877;18.896;-99.222;2023-05-29T08:25:37;13.18;;;7.72;;
12412;SDS011;13877;18.896;-99.222;2023-05-29T08:28:04;12.57;;;7.53;;
12412;SDS011;13877;18.896;-99.222;2023-05-29T08:30:31;13.75;;;7.05;;
12412;SDS011;13877;18.896;-99.222;2023-05-29T08:32:58;12.57;;;7.53;;
12412;SDS011;13877;18.896;-99.222;2023-05-29T08:35:25;16.45;;;7.15;;
12412;SDS011;13877;18.896;-99.222;2023-05-29T08:37:52;16.08;;;7.68;;
12412;SDS011;13877;18.896;-99.222;2023-05-29T08:40:21;15.93;;;7.97;;
12412;SDS011;13877;18.896;-99.222;2023-05-29T08:45:52;15.65;;;8.32;;
12412;SDS011;13877;18.896;-99.222;2023-05-29T08:48:23;14.45;;;8.73;;
12412;SDS011;13877;18.896;-99.222;2023-05-29T08:50:54;15.98;;;9.43;;
12412;SDS011;13877;18.896;-99.222;2023-05-29T08:53:22;13.63;;;8.63;;
12412;SDS011;13877;18.896;-99.222;2023-05-29T08:55:51;14.20;;;8.60;;
12412;SDS011;13877;18.896;-99.222;2023-05-29T08:58:19;16.38;;;9.43;;
12412;SDS011;13877;18.896;-99.222;2023-05-29T09:00:47;19.30;;;9.75;;
12412;SDS011;13877;18.896;-99.222;2023-05-29T09:03:15;15.23;;;9.48;;
12412;SDS011;13877;18.896;-99.222;2023-05-29T09:05:44;14.60;;;8.50;;
12412;SDS011;13877;18.896;-99.222;2023-05-29T09:08:11;14.50;;;8.93;;
12412;SDS011;13877;18.896;-99.222;2023-05-29T09:10:42;21.25;;;9.82;;
12412;SDS011;13877;18.896;-99.222;2023-05-29T09:15:39;19.88;;;9.43;;
12412;SDS011;13877;18.896;-99.222;2023-05-29T09:18:09;19.23;;;9.18;;
12412;SDS011;13877;18.896;-99.222;2023-05-29T09:20:36;17.33;;;9.88;;
12412;SDS011;13877;18.896;-99.222;2023-05-29T09:23:05;19.42;;;9.85;;
12412;SDS011;13877;18.896;-99.222;2023-05-29T09:25:34;16.38;;;9.95;;
12412;SDS011;13877;18.896;-99.222;2023-05-29T09:28:07;19.33;;;10.48;;
12412;SDS011;13877;18.896;-99.222;2023-05-29T09:30:41;15.02;;;8.68;;
12412;SDS011;13877;18.896;-99.222;2023-05-29T09:33:13;15.70;;;10.00;;
12412;SDS011;13877;18.896;-99.222;2023-05-29T09:35:48;13.80;;;8.70;;
12412;SDS011;13877;18.896;-99.222;2023-05-29T09:38:16;18.80;;;9.68;;
12412;SDS011;13877;18.896;-99.222;2023-05-29T09:40:44;19.67;;;9.38;;
12412;SDS011;13877;18.896;-99.222;2023-05-29T09:43:18;17.70;;;9.65;;
12412;SDS011;13877;18.896;-99.222;2023-05-29T09:45:47;19.30;;;10.48;;
12412;SDS011;13877;18.896;-99.222;2023-05-29T09:48:15;20.45;;;9.48;;
12412;SDS011;13877;18.896;-99.222;2023-05-29T09:50:44;15.73;;;9.52;;
12412;SDS011;13877;18.896;-99.222;2023-05-29T09:53:18;18.92;;;10.27;;
12412;SDS011;13877;18.896;-99.222;2023-05-29T09:55:52;19.70;;;11.05;;
12412;SDS011;13877;18.896;-99.222;2023-05-29T09:58:20;19.90;;;10.45;;
12412;SDS011;13877;18.896;-99.222;2023-05-29T10:00:48;16.92;;;9.90;;
12412;SDS011;13877;18.896;-99.222;2023-05-29T10:03:17;20.60;;;9.55;;
12412;SDS011;13877;18.896;-99.222;2023-05-29T10:05:49;16.77;;;9.97;;
12412;SDS011;13877;18.896;-99.222;2023-05-29T10:08:17;15.35;;;9.40;;
12412;SDS011;13877;18.896;-99.222;2023-05-29T10:10:46;16.30;;;9.55;;
12412;SDS011;13877;18.896;-99.222;2023-05-29T10:13:19;18.42;;;9.23;;
12412;SDS011;13877;18.896;-99.222;2023-05-29T10:15:52;17.67;;;9.05;;
12412;SDS011;13877;18.896;-99.222;2023-05-29T10:18:21;17.23;;;9.38;;
12412;SDS011;13877;18.896;-99.222;2023-05-29T10:20:52;16.42;;;9.18;;
12412;SDS011;13877;18.896;-99.222;2023-05-29T10:23:24;17.02;;;10.18;;
12412;SDS011;13877;18.896;-99.222;2023-05-29T10:25:53;17.02;;;10.05;;
12412;SDS011;13877;18.896;-99.222;2023-05-29T10:28:30;28.63;;;9.68;;
12412;SDS011;13877;18.896;-99.222;2023-05-29T10:31:06;16.75;;;9.57;;
12412;SDS011;13877;18.896;-99.222;2023-05-29T10:33:59;14.50;;;8.93;;
12412;SDS011;13877;18.896;-99.222;2023-05-29T10:36:54;18.55;;;10.02;;
12412;SDS011;13877;18.896;-99.222;2023-05-29T10:39:30;14.93;;;9.75;;
12412;SDS011;13877;18.896;-99.222;2023-05-29T10:41:57;19.08;;;8.98;;
12412;SDS011;13877;18.896;-99.222;2023-05-29T10:49:26;16.20;;;9.85;;
12412;SDS011;13877;18.896;-99.222;2023-05-29T10:51:53;16.00;;;9.32;;
12412;SDS011;13877;18.896;-99.222;2023-05-29T10:54:22;16.35;;;9.38;;
12412;SDS011;13877;18.896;-99.222;2023-05-29T10:56:57;17.48;;;9.55;;
12412;SDS011;13877;18.896;-99.222;2023-05-29T10:59:26;19.77;;;9.20;;
12412;SDS011;13877;18.896;-99.222;2023-05-29T11:01:54;15.27;;;9.15;;
12412;SDS011;13877;18.896;-99.222;2023-05-29T11:04:26;23.08;;;9.85;;
12412;SDS011;13877;18.896;-99.222;2023-05-29T11:06:54;17.83;;;8.85;;
12412;SDS011;13877;18.896;-99.222;2023-05-29T11:12:23;17.20;;;9.82;;
12412;SDS011;13877;18.896;-99.222;2023-05-29T11:15:10;20.75;;;9.85;;
12412;SDS011;13877;18.896;-99.222;2023-05-29T11:22:56;14.35;;;9.05;;
12412;SDS011;13877;18.896;-99.222;2023-05-29T11:25:27;15.07;;;8.60;;
12412;SDS011;13877;18.896;-99.222;2023-05-29T11:27:54;19.27;;;9.27;;
12412;SDS011;13877;18.896;-99.222;2023-05-29T11:30:22;15.52;;;9.38;;
12412;SDS011;13877;18.896;-99.222;2023-05-29T11:32:48;17.50;;;9.13;;
12412;SDS011;13877;18.896;-99.222;2023-05-29T11:35:19;15.82;;;9.23;;
12412;SDS011;13877;18.896;-99.222;2023-05-29T11:37:48;18.35;;;9.13;;
12412;SDS011;13877;18.896;-99.222;2023-05-29T11:40:16;18.33;;;9.30;;
12412;SDS011;13877;18.896;-99.222;2023-05-29T11:42:43;21.45;;;9.20;;
12412;SDS011;13877;18.896;-99.222;2023-05-29T11:45:12;16.30;;;7.90;;
12412;SDS011;13877;18.896;-99.222;2023-05-29T11:50:27;17.08;;;8.50;;
12412;SDS011;13877;18.896;-99.222;2023-05-29T11:52:56;13.90;;;8.25;;
12412;SDS011;13877;18.896;-99.222;2023-05-29T11:55:24;18.58;;;9.13;;
12412;SDS011;13877;18.896;-99.222;2023-05-29T11:57:59;15.75;;;9.27;;
12412;SDS011;13877;18.896;-99.222;2023-05-29T12:00:31;17.63;;;8.30;;
12412;SDS011;13877;18.896;-99.222;2023-05-29T12:03:00;16.38;;;9.00;;
12412;SDS011;13877;18.896;-99.222;2023-05-29T12:05:31;18.27;;;10.13;;
12412;SDS011;13877;18.896;-99.222;2023-05-29T12:07:59;18.10;;;10.30;;
12412;SDS011;13877;18.896;-99.222;2023-05-29T12:10:30;16.73;;;9.00;;
12412;SDS011;13877;18.896;-99.222;2023-05-29T12:13:00;17.40;;;8.57;;
12412;SDS011;13877;18.896;-99.222;2023-05-29T12:15:27;20.73;;;8.82;;
12412;SDS011;13877;18.896;-99.222;2023-05-29T12:17:54;12.30;;;8.05;;
12412;SDS011;13877;18.896;-99.222;2023-05-29T12:20:23;15.40;;;9.10;;
12412;SDS011;13877;18.896;-99.222;2023-05-29T12:22:52;26.88;;;10.38;;
12412;SDS011;13877;18.896;-99.222;2023-05-29T12:25:26;18.67;;;10.65;;
12412;SDS011;13877;18.896;-99.222;2023-05-29T12:27:55;19.70;;;9.52;;
12412;SDS011;13877;18.896;-99.222;2023-05-29T12:30:23;21.52;;;9.70;;
12412;SDS011;13877;18.896;-99.222;2023-05-29T12:32:51;25.98;;;8.88;;
12412;SDS011;13877;18.896;-99.222;2023-05-29T12:35:22;24.35;;;9.68;;
12412;SDS011;13877;18.896;-99.222;2023-05-29T12:42:55;22.30;;;9.32;;
12412;SDS011;13877;18.896;-99.222;2023-05-29T12:45:27;23.67;;;8.98;;
12412;SDS011;13877;18.896;-99.222;2023-05-29T12:47:59;23.77;;;9.80;;
12412;SDS011;13877;18.896;-99.222;2023-05-29T12:50:29;16.65;;;9.15;;
12412;SDS011;13877;18.896;-99.222;2023-05-29T12:53:11;18.83;;;8.68;;
12412;SDS011;13877;18.896;-99.222;2023-05-29T12:55:40;15.63;;;8.32;;
12412;SDS011;13877;18.896;-99.222;2023-05-29T12:58:10;22.05;;;9.60;;
12412;SDS011;13877;18.896;-99.222;2023-05-29T13:00:40;14.73;;;8.35;;
12412;SDS011;13877;18.896;-99.222;2023-05-29T13:03:08;15.52;;;7.97;;
12412;SDS011;13877;18.896;-99.222;2023-05-29T13:05:36;16.92;;;8.10;;
12412;SDS011;13877;18.896;-99.222;2023-05-29T13:08:03;22.67;;;8.32;;
12412;SDS011;13877;18.896;-99.222;2023-05-29T13:10:33;11.65;;;7.22;;
12412;SDS011;13877;18.896;-99.222;2023-05-29T13:13:00;12.07;;;8.45;;
12412;SDS011;13877;18.896;-99.222;2023-05-29T13:15:27;23.38;;;8.00;;
12412;SDS011;13877;18.896;-99.222;2023-05-29T13:17:54;20.60;;;8.90;;
12412;SDS011;13877;18.896;-99.222;2023-05-29T13:20:21;13.45;;;7.88;;
12412;SDS011;13877;18.896;-99.222;2023-05-29T13:22:48;19.67;;;9.23;;
12412;SDS011;13877;18.896;-99.222;2023-05-29T13:25:16;22.25;;;8.52;;
12412;SDS011;13877;18.896;-99.222;2023-05-29T13:27:46;13.82;;;8.20;;
12412;SDS011;13877;18.896;-99.222;2023-05-29T13:30:14;15.70;;;7.95;;
12412;SDS011;13877;18.896;-99.222;2023-05-29T13:32:41;13.32;;;8.25;;
12412;SDS011;13877;18.896;-99.222;2023-05-29T13:35:09;19.80;;;8.05;;
12412;SDS011;13877;18.896;-99.222;2023-05-29T13:37:36;20.80;;;7.50;;
12412;SDS011;13877;18.896;-99.222;2023-05-29T13:40:04;18.90;;;8.77;;
12412;SDS011;13877;18.896;-99.222;2023-05-29T13:42:32;17.40;;;9.05;;
12412;SDS011;13877;18.896;-99.222;2023-05-29T13:44:59;17.58;;;8.60;;
12412;SDS011;13877;18.896;-99.222;2023-05-29T13:47:25;12.52;;;7.82;;
12412;SDS011;13877;18.896;-99.222;2023-05-29T13:49:54;16.48;;;7.90;;
12412;SDS011;13877;18.896;-99.222;2023-05-29T13:52:21;13.18;;;7.32;;
12412;SDS011;13877;18.896;-99.222;2023-05-29T13:54:48;17.90;;;8.10;;
12412;SDS011;13877;18.896;-99.222;2023-05-29T13:57:15;15.48;;;7.32;;
12412;SDS011;13877;18.896;-99.222;2023-05-29T13:59:42;14.52;;;6.78;;
12412;SDS011;13877;18.896;-99.222;2023-05-29T14:02:09;12.93;;;8.00;;
12412;SDS011;13877;18.896;-99.222;2023-05-29T14:04:38;20.05;;;7.65;;
12412;SDS011;13877;18.896;-99.222;2023-05-29T14:07:08;13.88;;;7.68;;
12412;SDS011;13877;18.896;-99.222;2023-05-29T14:09:38;16.33;;;8.85;;
12412;SDS011;13877;18.896;-99.222;2023-05-29T14:12:05;16.48;;;8.43;;
12412;SDS011;13877;18.896;-99.222;2023-05-29T14:14:34;14.25;;;8.45;;
12412;SDS011;13877;18.896;-99.222;2023-05-29T14:17:00;13.57;;;7.90;;
12412;SDS011;13877;18.896;-99.222;2023-05-29T14:19:29;13.52;;;7.25;;
12412;SDS011;13877;18.896;-99.222;2023-05-29T14:21:56;17.13;;;8.63;;
12412;SDS011;13877;18.896;-99.222;2023-05-29T14:24:25;16.35;;;8.20;;
12412;SDS011;13877;18.896;-99.222;2023-05-29T14:26:52;23.00;;;9.15;;
12412;SDS011;13877;18.896;-99.222;2023-05-29T14:29:19;14.80;;;9.45;;
12412;SDS011;13877;18.896;-99.222;2023-05-29T14:31:46;22.52;;;9.90;;
12412;SDS011;13877;18.896;-99.222;2023-05-29T14:34:13;17.58;;;8.15;;
12412;SDS011;13877;18.896;-99.222;2023-05-29T14:36:42;15.38;;;7.95;;
12412;SDS011;13877;18.896;-99.222;2023-05-29T14:39:10;16.55;;;8.23;;
12412;SDS011;13877;18.896;-99.222;2023-05-29T14:41:38;14.75;;;7.78;;
12412;SDS011;13877;18.896;-99.222;2023-05-29T14:44:05;15.85;;;7.85;;
12412;SDS011;13877;18.896;-99.222;2023-05-29T14:46:32;12.82;;;7.60;;
12412;SDS011;13877;18.896;-99.222;2023-05-29T14:48:59;17.80;;;7.80;;
12412;SDS011;13877;18.896;-99.222;2023-05-29T14:51:27;15.65;;;8.30;;
12412;SDS011;13877;18.896;-99.222;2023-05-29T14:53:54;18.90;;;9.35;;
12412;SDS011;13877;18.896;-99.222;2023-05-29T14:56:21;19.45;;;9.00;;
12412;SDS011;13877;18.896;-99.222;2023-05-29T14:58:53;24.95;;;10.80;;